メインページ
METAR-TAF:

METAR-TAF

空港 :

メルボルン空港

メルボルン, オーストラリア

緯度: 37-40-24S, 経度: 144-50-36E, 海抜: 132m

現時点の気象観測

当レポートは37分前の13:00(UTC)に作成
の風 8kt
気温 19°C
湿度 83%
気圧 1020 hPa
視程10km以上
高度1300ftの千切れ雲あり

METAR: YMML 201300Z 18008KT 9999 BKN013 19/16 Q1020

時間: 00:37 (13:37 UTC)

予報

当レポートは2時間4分前の11:33(UTC)に作成
予報は20日の 12時(UTC)から 21日の 18時(UTC)まで有効
の風 7kt
視程10km以上
高度800ftの雲はほとんどない
高度1200ftの千切れ雲あり
20日の 21時(UTC)から 20日の 23時(UTC)まで徐々に
の風 12kt
視程10km以上
1,500メートル以下は雲なし、積乱雲なし
21日の 10時(UTC)から 21日の 12時(UTC)まで徐々に
南/南西の風 7kt
視程10km以上
高度1200ftの千切れ雲あり

TAF: YMML 201133Z 2012/2118 18007KT 9999 FEW008 BKN012 BECMG 2021/2023 18012KT CAVOK BECMG 2110/2112 20007KT 9999 BKN012

4,000以上の空港の気象観測と天気予報(METAR報とTAF報)

利用可能な観測所は地図上に黄色い丸と赤い丸で示す。

丸の上にカーソルを重ねると観測所名を参照できる。

次にクリックすると気象観測と天気予報を参照できる。

マップの切り替え:黒色「×」印の緑ボタンをクリックして拡大、「-」印の緑ボタンをクリックして縮小、緑色の三角印をクリックして隣りの地図に切り替え


METAR-TAF: